This is the latest recevied weather packets stored in our database for station/object N8HKU-5. If no packets are shown the sender has not sent any weather packets the latest 10 day(s).
| Time | Temp. | Humidity | Pressure | Rain* | Wind** | Luminosity | Snow |
|---|---|---|---|---|---|---|---|
| 1777850554 | 13.89° C | 58% | 1007.8 hPa | 0 mm | - | - | - |
| 1777849953 | 14.44° C | 54% | 1007.7 hPa | 0 mm | - | - | - |
| 1777849354 | 15° C | 50% | 1007.3 hPa | 0 mm | - | - | - |
| 1777848754 | 15.56° C | 47% | 1007.4 hPa | 0 mm | - | - | - |
| 1777848153 | 15.56° C | 47% | 1007.4 hPa | 0 mm | - | - | - |
| 1777847554 | 15.56° C | 47% | 1007.4 hPa | 0 mm | - | - | - |
| 1777846953 | 15.56° C | 47% | 1007.5 hPa | 0 mm | - | - | - |
| 1777846354 | 16.11° C | 45% | 1007.4 hPa | 0 mm | - | - | - |
| 1777845753 | 16.67° C | 44% | 1007.4 hPa | 0 mm | - | - | - |
| 1777845154 | 16.67° C | 44% | 1007.4 hPa | 0 mm | - | - | - |
| 1777844553 | 16.67° C | 43% | 1007.4 hPa | 0 mm | - | - | - |
| 1777843953 | 16.67° C | 43% | 1007.4 hPa | 0 mm | - | - | - |
| 1777843353 | 17.22° C | 42% | 1007.4 hPa | 0 mm | - | - | - |
| 1777842753 | 17.22° C | 42% | 1007.4 hPa | 0 mm | - | - | - |
| 1777842153 | 17.22° C | 42% | 1007.6 hPa | 0 mm | - | - | - |
| 1777841553 | 16.67° C | 43% | 1007.7 hPa | 0 mm | - | - | - |
| 1777840953 | 16.67° C | 42% | 1007.8 hPa | 0 mm | - | - | - |
| 1777840353 | 16.67° C | 43% | 1007.8 hPa | 0 mm | - | - | - |
| 1777839753 | 16.67° C | 42% | 1007.8 hPa | 0 mm | - | - | - |
| 1777839153 | 16.67° C | 44% | 1007.7 hPa | 0 mm | - | - | - |
| 1777838553 | 16.67° C | 41% | 1007.9 hPa | 0 mm | - | - | - |
| 1777837953 | 17.22° C | 39% | 1008.1 hPa | 0 mm | - | - | - |
| 1777837353 | 17.22° C | 42% | 1008.1 hPa | 0 mm | - | - | - |
| 1777836753 | 16.67° C | 45% | 1008.4 hPa | 0 mm | - | - | - |
| 1777836154 | 16.67° C | 41% | 1008.5 hPa | 0 mm | - | - | - |
* Rain latest hour (hover to see other rain measurements)
** Current wind speed in m/s (hover to see current wind gust speed)